Time;durP1;ratioP1;P1;durP2;ratioP2;P2;SDS_P1;SDS_P2;PMS_P1;PMS_P2;Temp;Humidity;BMP_temperature;BMP_pressure;BME280_temperature;BME280_humidity;BME280_pressure;Samples;Min_cycle;Max_cycle;Signal;HPM_P1;HPM_P2
2022/01/09 00:00:57;;;;;;;1.38;0.60;;;13.40;66.10;;;;;;4997973;28;20136;-22
2022/01/09 00:03:22;;;;;;;0.90;0.68;;;13.50;66.10;;;;;;4996838;28;20058;-23
2022/01/09 00:05:48;;;;;;;1.23;0.70;;;13.50;66.00;;;;;;5015871;28;20117;-20
2022/01/09 00:08:13;;;;;;;0.63;0.50;;;13.50;66.00;;;;;;5016584;28;20263;-20
2022/01/09 00:10:46;;;;;;;0.75;0.63;;;13.50;66.00;;;;;;5016029;28;20137;-19
2022/01/09 00:13:11;;;;;;;0.90;0.60;;;13.40;66.20;;;;;;5017074;28;20052;-22
2022/01/09 00:15:37;;;;;;;0.65;0.45;;;13.40;66.30;;;;;;5016244;28;20413;-22
2022/01/09 00:18:02;;;;;;;0.70;0.50;;;13.50;66.30;;;;;;5016567;28;20132;-22
2022/01/09 00:20:28;;;;;;;2.05;0.55;;;13.50;65.90;;;;;;5016157;28;20129;-22
2022/01/09 00:22:54;;;;;;;0.57;0.45;;;13.50;65.90;;;;;;5016916;28;20522;-20
2022/01/09 00:25:21;;;;;;;0.82;0.82;;;13.60;65.90;;;;;;5015324;28;20053;-21
2022/01/09 00:27:46;;;;;;;0.50;0.40;;;13.60;65.80;;;;;;5015741;28;20122;-21
2022/01/09 00:30:14;;;;;;;0.45;0.45;;;13.60;65.80;;;;;;5008165;28;20510;-22
2022/01/09 00:32:39;;;;;;;0.98;0.60;;;13.60;65.80;;;;;;5016398;28;20046;-21
2022/01/09 00:35:05;;;;;;;1.15;0.70;;;13.50;66.10;;;;;;5015819;28;20418;-20
2022/01/09 00:37:31;;;;;;;0.40;0.40;;;13.50;66.20;;;;;;5013633;28;20050;-23
2022/01/09 00:39:56;;;;;;;1.33;0.80;;;13.50;66.20;;;;;;5015548;28;20041;-22
2022/01/09 00:42:22;;;;;;;0.52;0.50;;;13.50;66.30;;;;;;5016495;28;20061;-23
2022/01/09 00:44:48;;;;;;;0.50;0.40;;;13.40;66.30;;;;;;5015243;28;20091;-22
2022/01/09 00:47:13;;;;;;;0.98;0.70;;;13.40;66.50;;;;;;5014155;28;20033;-21
2022/01/09 00:49:39;;;;;;;0.50;0.50;;;13.40;66.50;;;;;;5013700;28;20065;-21
2022/01/09 00:52:05;;;;;;;0.68;0.40;;;13.40;66.30;;;;;;5014862;28;20064;-21
2022/01/09 00:54:30;;;;;;;0.52;0.50;;;13.50;66.20;;;;;;5013886;28;20044;-21
2022/01/09 00:56:56;;;;;;;0.57;0.47;;;13.50;66.00;;;;;;5015272;28;20042;-21
2022/01/09 00:59:21;;;;;;;0.50;0.40;;;13.50;65.90;;;;;;5014992;28;20041;-22
2022/01/09 01:01:47;;;;;;;0.80;0.70;;;13.50;65.90;;;;;;5015281;28;20046;-22
2022/01/09 01:04:13;;;;;;;0.80;0.60;;;13.50;65.80;;;;;;5016210;28;20124;-21
2022/01/09 01:06:38;;;;;;;0.70;0.65;;;13.60;65.70;;;;;;5015491;28;20593;-20
2022/01/09 01:09:04;;;;;;;0.50;0.40;;;13.50;65.60;;;;;;5015231;28;20062;-22
2022/01/09 01:11:29;;;;;;;0.57;0.55;;;13.50;65.80;;;;;;4999939;28;20092;-23
2022/01/09 01:13:55;;;;;;;0.93;0.50;;;13.50;65.80;;;;;;5016145;28;20441;-21
2022/01/09 01:16:21;;;;;;;0.60;0.45;;;13.50;65.70;;;;;;5016464;28;20041;-21
2022/01/09 01:18:46;;;;;;;1.77;0.85;;;13.60;65.70;;;;;;5015724;28;20069;-22
2022/01/09 01:21:12;;;;;;;0.88;0.65;;;13.50;65.80;;;;;;5016263;28;20048;-22
2022/01/09 01:23:38;;;;;;;0.90;0.50;;;13.60;65.70;;;;;;5015536;28;20049;-21
2022/01/09 01:26:03;;;;;;;0.68;0.50;;;13.50;65.50;;;;;;5015743;28;20049;-21
2022/01/09 01:28:30;;;;;;;0.70;0.47;;;13.50;65.60;;;;;;5015025;28;20506;-21
2022/01/09 01:30:55;;;;;;;0.95;0.70;;;13.50;65.90;;;;;;5014818;28;20057;-22
2022/01/09 01:33:21;;;;;;;0.60;0.50;;;13.50;65.70;;;;;;5015713;28;20100;-22
2022/01/09 01:35:46;;;;;;;0.57;0.50;;;13.50;65.70;;;;;;5015214;28;20060;-21
2022/01/09 01:38:12;;;;;;;0.57;0.38;;;13.50;65.70;;;;;;5015805;28;20069;-20
2022/01/09 01:40:38;;;;;;;0.82;0.70;;;13.60;65.60;;;;;;5015013;28;20042;-23
2022/01/09 01:43:03;;;;;;;0.95;0.57;;;13.50;65.70;;;;;;5015259;28;20050;-21
2022/01/09 01:45:29;;;;;;;0.77;0.50;;;13.50;65.80;;;;;;5014692;28;20064;-24
2022/01/09 01:47:54;;;;;;;0.82;0.52;;;13.50;65.70;;;;;;5014749;28;20081;-22
2022/01/09 01:50:20;;;;;;;1.10;0.70;;;13.50;65.70;;;;;;5014993;28;20046;-21
2022/01/09 01:52:49;;;;;;;0.57;0.50;;;13.50;65.80;;;;;;5014470;28;20426;-20
2022/01/09 01:55:15;;;;;;;0.60;0.50;;;13.50;65.70;;;;;;5013704;28;20052;-21
2022/01/09 01:57:42;;;;;;;0.40;0.40;;;13.50;65.50;;;;;;5013813;28;20034;-22
2022/01/09 02:00:10;;;;;;;0.63;0.43;;;13.50;65.60;;;;;;5014875;28;20045;-22
2022/01/09 02:02:36;;;;;;;0.43;0.43;;;13.50;65.50;;;;;;5014611;28;20493;-23
2022/01/09 02:05:04;;;;;;;0.93;0.52;;;13.50;65.60;;;;;;5015133;28;20133;-22
2022/01/09 02:07:30;;;;;;;0.50;0.40;;;13.50;65.60;;;;;;5014675;28;20049;-21
2022/01/09 02:09:55;;;;;;;0.50;0.50;;;13.50;65.50;;;;;;5014864;28;20054;-22
2022/01/09 02:12:21;;;;;;;0.60;0.40;;;13.50;65.50;;;;;;5013889;28;20104;-23
2022/01/09 02:14:48;;;;;;;0.60;0.52;;;13.50;65.50;;;;;;5014864;28;20195;-22
2022/01/09 02:17:18;;;;;;;0.70;0.50;;;13.50;65.50;;;;;;5014774;28;20046;-22
2022/01/09 02:19:54;;;;;;;1.13;0.40;;;13.50;66.30;;;;;;5014732;28;20045;-22
2022/01/09 02:22:19;;;;;;;0.95;0.60;;;13.50;65.50;;;;;;5014406;28;20048;-22
2022/01/09 02:24:45;;;;;;;0.35;0.30;;;13.50;65.60;;;;;;5014269;28;20507;-22
2022/01/09 02:27:10;;;;;;;0.55;0.40;;;13.50;65.70;;;;;;5014387;28;20041;-21
2022/01/09 02:29:36;;;;;;;0.50;0.40;;;13.50;65.70;;;;;;5014414;28;20528;-24
2022/01/09 02:32:02;;;;;;;0.73;0.57;;;13.40;65.70;;;;;;5014735;28;20091;-22
2022/01/09 02:34:27;;;;;;;1.25;0.80;;;13.40;65.80;;;;;;5014971;28;20037;-22
2022/01/09 02:36:53;;;;;;;0.68;0.57;;;13.40;65.80;;;;;;5014233;28;20095;-22
2022/01/09 02:39:18;;;;;;;0.70;0.70;;;13.50;65.80;;;;;;5014945;28;20052;-21
2022/01/09 02:41:44;;;;;;;0.63;0.60;;;13.40;65.70;;;;;;5013980;28;20042;-22
2022/01/09 02:44:10;;;;;;;0.80;0.70;;;13.40;65.80;;;;;;5014123;28;20510;-21
2022/01/09 02:49:20;;;;;;;0.50;0.50;;;13.30;66.00;;;;;;5014761;28;20068;-22
2022/01/09 02:51:46;;;;;;;0.93;0.60;;;13.40;66.00;;;;;;5014337;28;20042;-21
2022/01/09 02:56:56;;;;;;;;;;;13.40;66.00;;;;;;5013963;28;20081;-22
2022/01/09 02:59:22;;;;;;;0.98;0.90;;;13.40;65.80;;;;;;5014245;28;19913;-22
2022/01/09 03:01:47;;;;;;;0.40;0.40;;;13.40;65.80;;;;;;5013989;28;20034;-22
2022/01/09 03:04:13;;;;;;;0.90;0.55;;;13.40;65.70;;;;;;5013879;28;20050;-20
2022/01/09 03:06:38;;;;;;;0.70;0.60;;;13.40;65.80;;;;;;5013781;28;20049;-21
2022/01/09 03:09:06;;;;;;;0.52;0.30;;;13.40;65.80;;;;;;5014281;28;20120;-22
2022/01/09 03:11:32;;;;;;;0.68;0.35;;;13.40;65.70;;;;;;5014641;28;20053;-22
2022/01/09 03:13:58;;;;;;;0.55;0.50;;;13.40;65.90;;;;;;5013957;28;20476;-21
2022/01/09 03:16:23;;;;;;;0.52;0.40;;;13.40;65.90;;;;;;5014784;28;20080;-21
2022/01/09 03:18:49;;;;;;;1.55;0.60;;;13.40;65.90;;;;;;5013812;28;20054;-22
2022/01/09 03:21:14;;;;;;;0.43;0.40;;;13.40;65.90;;;;;;5012341;28;20518;-22
2022/01/09 03:23:40;;;;;;;0.45;0.38;;;13.40;65.90;;;;;;5012082;28;20050;-23
2022/01/09 03:26:09;;;;;;;1.10;0.50;;;13.40;66.40;;;;;;5012526;28;20041;-27
2022/01/09 03:28:35;;;;;;;0.65;0.45;;;13.30;66.00;;;;;;5011506;28;20045;-22
2022/01/09 03:31:00;;;;;;;0.30;0.30;;;13.30;66.00;;;;;;5013390;28;20073;-21
2022/01/09 03:33:26;;;;;;;0.50;0.40;;;13.40;66.00;;;;;;5015464;28;20049;-21
2022/01/09 03:35:51;;;;;;;0.75;0.40;;;13.40;66.00;;;;;;5016529;28;20046;-25
2022/01/09 03:38:17;;;;;;;1.55;0.40;;;13.40;65.80;;;;;;5015438;28;20124;-26
2022/01/09 03:40:43;;;;;;;0.63;0.60;;;13.30;65.90;;;;;;4997807;28;20528;-23
2022/01/09 03:43:08;;;;;;;0.80;0.40;;;13.30;66.00;;;;;;4996332;28;20042;-21
2022/01/09 03:45:34;;;;;;;0.35;0.30;;;13.30;66.00;;;;;;4997325;28;20058;-21
2022/01/09 03:47:59;;;;;;;0.47;0.30;;;13.30;66.10;;;;;;4994034;28;20150;-22
2022/01/09 03:50:25;;;;;;;0.85;0.52;;;13.30;66.00;;;;;;4996443;28;20042;-25
2022/01/09 03:52:51;;;;;;;0.47;0.32;;;13.30;66.10;;;;;;4996552;28;20049;-24
2022/01/09 03:55:19;;;;;;;2.28;0.55;;;13.30;66.00;;;;;;4996726;28;20143;-21
2022/01/09 03:57:45;;;;;;;0.40;0.32;;;13.30;66.10;;;;;;4996400;28;20449;-23
2022/01/09 04:00:13;;;;;;;0.30;0.30;;;13.30;66.10;;;;;;4996768;28;20096;-23
2022/01/09 04:02:40;;;;;;;0.65;0.50;;;13.30;66.00;;;;;;4993953;28;20124;-24
2022/01/09 04:05:06;;;;;;;0.70;0.40;;;13.30;65.90;;;;;;4994005;28;20664;-21
2022/01/09 04:07:32;;;;;;;0.40;0.40;;;13.30;65.90;;;;;;4996965;28;20519;-21
2022/01/09 04:09:58;;;;;;;0.63;0.50;;;13.30;66.00;;;;;;4995231;28;20137;-23
2022/01/09 04:12:34;;;;;;;0.77;0.60;;;13.30;66.10;;;;;;4996683;28;20074;-22
2022/01/09 04:15:04;;;;;;;0.60;0.60;;;13.20;66.10;;;;;;4994678;28;20089;-23
2022/01/09 04:20:29;;;;;;;1.50;0.45;;;13.30;66.10;;;;;;5019384;28;20038;-23
2022/01/09 04:22:55;;;;;;;0.50;0.32;;;13.30;65.90;;;;;;5015412;28;20069;-22
2022/01/09 04:25:21;;;;;;;0.60;0.40;;;13.30;65.90;;;;;;5016332;28;20042;-22
2022/01/09 04:27:47;;;;;;;0.40;0.40;;;13.30;65.90;;;;;;5015186;28;20041;-23
2022/01/09 04:30:12;;;;;;;0.55;0.43;;;13.30;66.00;;;;;;5016127;28;20438;-23
2022/01/09 04:32:38;;;;;;;0.88;0.50;;;13.30;66.00;;;;;;5015452;28;20045;-22
2022/01/09 04:35:04;;;;;;;2.15;0.60;;;13.30;66.10;;;;;;5015971;28;20077;-21
2022/01/09 04:37:32;;;;;;;0.63;0.60;;;13.30;66.00;;;;;;5016004;28;20087;-22
2022/01/09 04:39:58;;;;;;;0.90;0.70;;;13.30;66.10;;;;;;5015024;28;20050;-24
2022/01/09 04:42:30;;;;;;;0.70;0.70;;;13.30;66.10;;;;;;5014088;28;20057;-22
2022/01/09 04:44:56;;;;;;;0.68;0.55;;;13.30;66.10;;;;;;5012069;28;20116;-20
2022/01/09 04:47:21;;;;;;;0.52;0.50;;;13.20;66.10;;;;;;5014307;28;20049;-22
2022/01/09 04:49:49;;;;;;;1.10;0.60;;;13.30;66.10;;;;;;5014965;28;20413;-23
2022/01/09 04:52:18;;;;;;;1.08;0.45;;;13.30;66.00;;;;;;5015747;28;20073;-22
2022/01/09 04:54:44;;;;;;;0.82;0.40;;;13.30;66.10;;;;;;5014731;28;20045;-23
2022/01/09 04:57:10;;;;;;;0.60;0.55;;;13.30;66.00;;;;;;5011008;28;20118;-22
2022/01/09 04:59:35;;;;;;;1.30;0.73;;;13.20;66.10;;;;;;5011578;28;20041;-22
2022/01/09 05:02:01;;;;;;;0.40;0.40;;;13.20;66.20;;;;;;5014911;28;20100;-21
2022/01/09 05:04:26;;;;;;;0.98;0.80;;;13.20;66.20;;;;;;5014688;28;20041;-22
2022/01/09 05:06:52;;;;;;;0.52;0.40;;;13.20;66.10;;;;;;5013991;28;20038;-21
2022/01/09 05:09:18;;;;;;;0.65;0.45;;;13.20;66.10;;;;;;5014480;28;20080;-22
2022/01/09 05:11:43;;;;;;;0.40;0.40;;;13.30;66.20;;;;;;5013846;28;20057;-22
2022/01/09 05:14:09;;;;;;;0.70;0.50;;;13.20;66.20;;;;;;5014955;28;20512;-22
2022/01/09 05:16:34;;;;;;;0.60;0.50;;;13.30;66.20;;;;;;5013967;28;20045;-21
2022/01/09 05:19:06;;;;;;;0.40;0.40;;;13.20;66.00;;;;;;5014109;28;20054;-23
2022/01/09 05:21:32;;;;;;;0.50;0.50;;;13.20;66.00;;;;;;5015288;28;20069;-24
2022/01/09 05:23:58;;;;;;;0.63;0.40;;;13.20;66.10;;;;;;5013674;28;20038;-22
2022/01/09 05:26:23;;;;;;;0.57;0.57;;;13.20;66.00;;;;;;5014930;28;20097;-22
2022/01/09 05:28:49;;;;;;;0.70;0.60;;;13.20;66.00;;;;;;5014323;28;20038;-22
2022/01/09 05:31:15;;;;;;;0.52;0.40;;;13.20;66.00;;;;;;5015449;28;20042;-21
2022/01/09 05:33:40;;;;;;;0.47;0.43;;;13.20;66.10;;;;;;5016438;28;20092;-22
2022/01/09 05:36:06;;;;;;;0.50;0.50;;;13.20;66.20;;;;;;5015712;28;20599;-23
2022/01/09 05:38:32;;;;;;;0.50;0.47;;;13.20;66.20;;;;;;5016107;28;20046;-22
2022/01/09 05:40:57;;;;;;;1.77;0.50;;;13.20;66.30;;;;;;5015748;28;20104;-22
2022/01/09 05:43:23;;;;;;;0.30;0.30;;;13.20;66.30;;;;;;5016078;28;20107;-22
2022/01/09 05:45:49;;;;;;;0.68;0.57;;;13.10;66.10;;;;;;5015400;28;20050;-21
2022/01/09 05:48:16;;;;;;;0.60;0.40;;;13.20;66.20;;;;;;5016284;28;20042;-21
2022/01/09 05:50:42;;;;;;;0.30;0.30;;;13.20;66.20;;;;;;5014942;28;20091;-22
2022/01/09 05:53:08;;;;;;;0.25;0.20;;;13.20;66.10;;;;;;5015219;28;20112;-22
2022/01/09 05:55:34;;;;;;;0.60;0.38;;;13.20;66.00;;;;;;5015762;28;20279;-22
2022/01/09 05:57:59;;;;;;;0.55;0.40;;;13.20;66.20;;;;;;5014740;28;21302;-22
2022/01/09 06:00:25;;;;;;;0.47;0.30;;;13.30;66.20;;;;;;5015938;28;20056;-21
2022/01/09 06:02:50;;;;;;;0.50;0.40;;;13.20;66.10;;;;;;5015119;28;20089;-22
2022/01/09 06:05:16;;;;;;;0.57;0.40;;;13.20;66.20;;;;;;5015214;28;20092;-22
2022/01/09 06:07:42;;;;;;;0.45;0.38;;;13.20;66.00;;;;;;5015823;28;20117;-22
2022/01/09 06:10:08;;;;;;;0.30;0.30;;;13.20;66.30;;;;;;5014725;28;20499;-20
2022/01/09 06:12:34;;;;;;;1.20;0.50;;;13.20;66.20;;;;;;5014405;28;20045;-21
2022/01/09 06:14:59;;;;;;;0.80;0.32;;;13.20;66.20;;;;;;5015127;28;20049;-21
2022/01/09 06:17:25;;;;;;;0.65;0.30;;;13.20;66.30;;;;;;5015624;28;20103;-22
2022/01/09 06:19:51;;;;;;;0.65;0.65;;;13.10;66.10;;;;;;5015104;28;20130;-22
2022/01/09 06:22:18;;;;;;;0.60;0.40;;;13.20;66.30;;;;;;5015654;28;20050;-22
2022/01/09 06:24:53;;;;;;;0.60;0.40;;;13.10;66.10;;;;;;5014810;28;20042;-20
2022/01/09 06:27:18;;;;;;;0.40;0.32;;;13.20;66.20;;;;;;5015487;28;20050;-21
2022/01/09 06:29:44;;;;;;;1.05;0.63;;;13.20;66.20;;;;;;5015373;28;20054;-21
2022/01/09 06:32:10;;;;;;;0.22;0.22;;;13.10;66.30;;;;;;4995588;28;20105;-22
2022/01/09 06:34:36;;;;;;;0.43;0.40;;;13.10;66.30;;;;;;4995676;28;20121;-22
2022/01/09 06:37:01;;;;;;;0.50;0.40;;;13.20;66.20;;;;;;4995239;28;20042;-22
2022/01/09 06:39:27;;;;;;;0.40;0.35;;;13.10;66.10;;;;;;4995750;28;20042;-22
2022/01/09 06:41:53;;;;;;;0.45;0.30;;;13.10;66.20;;;;;;4994642;28;20522;-22
2022/01/09 06:44:18;;;;;;;0.30;0.30;;;13.10;66.10;;;;;;4995904;28;20045;-23
2022/01/09 06:46:44;;;;;;;0.50;0.47;;;13.20;66.20;;;;;;4995609;28;20043;-22
2022/01/09 06:49:10;;;;;;;0.47;0.40;;;13.10;66.10;;;;;;4995224;28;20126;-22
2022/01/09 06:51:35;;;;;;;0.43;0.32;;;13.10;66.10;;;;;;4995617;28;20050;-22
2022/01/09 06:54:01;;;;;;;0.63;0.63;;;13.10;66.30;;;;;;4994498;28;20092;-22
2022/01/09 06:56:27;;;;;;;0.35;0.35;;;13.10;66.20;;;;;;4995594;28;20141;-21
2022/01/09 06:58:52;;;;;;;0.47;0.45;;;13.10;66.20;;;;;;4994727;28;20038;-21
2022/01/09 07:01:18;;;;;;;0.52;0.30;;;13.20;66.20;;;;;;4994870;28;20054;-22
2022/01/09 07:03:43;;;;;;;0.17;0.17;;;13.10;66.20;;;;;;4995619;28;20053;-21
2022/01/09 07:06:10;;;;;;;0.68;0.43;;;13.10;66.30;;;;;;4994252;28;20046;-22
2022/01/09 07:08:36;;;;;;;0.30;0.30;;;13.10;66.30;;;;;;4997564;28;20034;-21
2022/01/09 07:11:02;;;;;;;0.68;0.60;;;13.10;66.20;;;;;;4998689;28;20066;-21
2022/01/09 07:13:28;;;;;;;0.60;0.30;;;13.10;66.10;;;;;;4998949;28;20043;-22
2022/01/09 07:15:53;;;;;;;0.90;0.50;;;13.10;66.10;;;;;;4998696;28;20081;-23
2022/01/09 07:18:19;;;;;;;0.60;0.40;;;13.10;66.10;;;;;;4999399;28;20042;-21
2022/01/09 07:20:44;;;;;;;0.65;0.45;;;13.10;66.10;;;;;;4999181;28;20046;-22
2022/01/09 07:23:10;;;;;;;0.70;0.43;;;13.10;66.20;;;;;;4998466;28;20047;-22
2022/01/09 07:25:36;;;;;;;0.52;0.45;;;13.10;66.20;;;;;;4999266;28;20104;-23
2022/01/09 07:28:02;;;;;;;0.50;0.50;;;13.10;66.20;;;;;;4998396;28;20042;-23
2022/01/09 07:30:28;;;;;;;0.40;0.40;;;13.10;66.20;;;;;;4998951;28;20046;-21
2022/01/09 07:32:54;;;;;;;0.35;0.30;;;13.10;66.10;;;;;;4998435;28;20042;-21
2022/01/09 07:35:20;;;;;;;0.52;0.40;;;13.20;66.00;;;;;;4999168;28;20054;-19
2022/01/09 07:37:46;;;;;;;0.45;0.30;;;13.20;65.90;;;;;;4998767;28;20076;-23
2022/01/09 07:40:12;;;;;;;0.40;0.30;;;13.10;66.10;;;;;;4998449;28;20128;-21
2022/01/09 07:42:38;;;;;;;0.45;0.40;;;13.10;66.10;;;;;;4998828;28;20568;-20
2022/01/09 07:45:06;;;;;;;0.60;0.40;;;13.20;66.00;;;;;;4997959;28;20050;-21
2022/01/09 07:47:33;;;;;;;0.60;0.50;;;13.20;65.90;;;;;;4998712;28;20138;-22
2022/01/09 07:49:59;;;;;;;0.38;0.30;;;13.20;66.10;;;;;;4998102;28;20038;-20
2022/01/09 07:52:24;;;;;;;0.65;0.43;;;13.10;66.10;;;;;;4998823;28;20178;-22
2022/01/09 07:54:50;;;;;;;0.85;0.47;;;13.10;66.10;;;;;;4997548;28;20411;-23
2022/01/09 07:57:15;;;;;;;0.32;0.30;;;13.10;66.10;;;;;;4998145;28;20038;-21
2022/01/09 07:59:41;;;;;;;1.05;0.55;;;13.10;66.20;;;;;;4997935;28;20130;-21
2022/01/09 08:02:07;;;;;;;0.30;0.30;;;13.10;66.20;;;;;;4997708;28;20030;-21
2022/01/09 08:04:32;;;;;;;0.63;0.50;;;13.10;66.20;;;;;;4998319;28;20376;-21
2022/01/09 08:06:58;;;;;;;0.45;0.40;;;13.10;66.20;;;;;;4997944;28;20557;-21
2022/01/09 08:09:23;;;;;;;0.28;0.28;;;13.10;66.30;;;;;;4998030;28;20074;-21
2022/01/09 08:11:49;;;;;;;0.52;0.50;;;13.00;66.30;;;;;;4996487;28;20073;-20
2022/01/09 08:14:15;;;;;;;0.47;0.30;;;13.00;66.40;;;;;;4996302;28;20055;-23
2022/01/09 08:16:40;;;;;;;0.50;0.40;;;13.10;66.50;;;;;;4997009;28;20042;-23
2022/01/09 08:19:06;;;;;;;0.65;0.30;;;13.00;66.30;;;;;;4995576;28;20042;-22
2022/01/09 08:21:31;;;;;;;1.23;0.20;;;13.00;66.30;;;;;;4997593;28;20042;-21
2022/01/09 08:23:57;;;;;;;0.50;0.40;;;13.00;67.10;;;;;;4996826;28;20038;-23
2022/01/09 08:26:23;;;;;;;0.52;0.40;;;13.10;66.40;;;;;;4997443;28;20038;-23
2022/01/09 08:28:48;;;;;;;0.43;0.40;;;13.10;66.30;;;;;;4997240;28;20054;-22
2022/01/09 08:31:15;;;;;;;0.75;0.47;;;13.10;66.10;;;;;;4996640;28;20061;-22
2022/01/09 08:33:41;;;;;;;0.75;0.65;;;13.10;66.10;;;;;;4997391;28;20452;-24
2022/01/09 08:36:07;;;;;;;1.08;0.50;;;13.10;66.20;;;;;;4996631;28;20045;-22
2022/01/09 08:38:32;;;;;;;0.40;0.40;;;13.10;66.20;;;;;;4997119;28;20407;-23
2022/01/09 08:40:58;;;;;;;0.45;0.45;;;13.10;66.20;;;;;;4996415;28;20049;-22
2022/01/09 08:43:24;;;;;;;0.40;0.30;;;13.10;66.30;;;;;;4997232;28;20038;-22
2022/01/09 08:45:49;;;;;;;0.50;0.47;;;13.10;66.10;;;;;;4996068;28;20461;-22
2022/01/09 08:48:15;;;;;;;0.70;0.70;;;13.10;66.20;;;;;;4994858;28;20062;-22
2022/01/09 08:50:41;;;;;;;0.68;0.45;;;13.10;66.10;;;;;;4995898;28;20059;-22
2022/01/09 08:53:06;;;;;;;0.43;0.40;;;13.00;66.30;;;;;;4996005;28;20122;-22
2022/01/09 08:55:32;;;;;;;0.60;0.35;;;13.10;66.30;;;;;;4997104;28;20525;-25
2022/01/09 08:57:57;;;;;;;0.60;0.40;;;13.00;66.30;;;;;;4996147;28;20458;-22
2022/01/09 09:00:24;;;;;;;0.70;0.38;;;13.00;66.30;;;;;;4996534;28;20038;-22
2022/01/09 09:02:50;;;;;;;0.63;0.50;;;13.10;66.30;;;;;;4996195;28;20048;-21
2022/01/09 09:05:15;;;;;;;0.40;0.40;;;13.10;66.10;;;;;;4995395;28;20042;-21
2022/01/09 09:07:41;;;;;;;0.50;0.30;;;13.10;66.30;;;;;;4996387;28;20046;-22
2022/01/09 09:10:07;;;;;;;0.40;0.40;;;13.10;66.20;;;;;;4995962;28;20403;-21
2022/01/09 09:12:33;;;;;;;0.30;0.30;;;13.10;66.10;;;;;;4996345;28;20042;-20
2022/01/09 09:14:59;;;;;;;0.50;0.40;;;13.10;66.10;;;;;;4995860;28;20034;-21
2022/01/09 09:17:26;;;;;;;0.40;0.20;;;13.10;66.30;;;;;;4996113;28;20487;-22
2022/01/09 09:19:52;;;;;;;0.40;0.40;;;13.00;66.30;;;;;;4996521;28;20034;-20
2022/01/09 09:22:18;;;;;;;0.50;0.50;;;13.00;66.30;;;;;;4995368;28;20050;-23
2022/01/09 09:24:43;;;;;;;0.30;0.30;;;13.00;66.20;;;;;;4994860;28;20038;-21
2022/01/09 09:27:09;;;;;;;0.60;0.40;;;13.10;66.30;;;;;;4996067;28;20142;-22
2022/01/09 09:29:34;;;;;;;0.50;0.43;;;13.10;66.30;;;;;;4996812;28;20038;-24
2022/01/09 09:32:00;;;;;;;0.57;0.43;;;13.10;66.10;;;;;;4995841;28;20049;-22
2022/01/09 09:34:25;;;;;;;0.40;0.40;;;13.10;66.10;;;;;;4998176;28;20022;-21
2022/01/09 09:36:52;;;;;;;0.60;0.47;;;13.10;66.00;;;;;;4998054;28;20038;-22
2022/01/09 09:39:18;;;;;;;0.60;0.60;;;13.10;65.90;;;;;;4997987;28;20027;-22
2022/01/09 09:41:44;;;;;;;0.95;0.40;;;13.10;65.90;;;;;;4997818;28;20033;-22
2022/01/09 09:44:09;;;;;;;0.57;0.57;;;13.20;65.90;;;;;;5013343;28;20028;-24
2022/01/09 09:46:35;;;;;;;0.60;0.30;;;13.20;65.90;;;;;;5012840;28;20061;-24
2022/01/09 09:49:01;;;;;;;0.40;0.30;;;13.10;65.90;;;;;;4997669;28;20026;-23
2022/01/09 09:51:28;;;;;;;0.60;0.28;;;13.10;66.10;;;;;;4997759;28;20057;-23
2022/01/09 09:53:55;;;;;;;0.35;0.22;;;13.10;66.20;;;;;;4996424;28;20220;-23
2022/01/09 09:56:21;;;;;;;0.68;0.38;;;13.10;66.20;;;;;;4996915;28;20058;-23
2022/01/09 09:58:49;;;;;;;0.43;0.30;;;13.10;66.10;;;;;;4997721;28;20030;-22
2022/01/09 10:01:31;;;;;;;0.57;0.30;;;13.10;66.20;;;;;;4996159;28;20022;-23
2022/01/09 10:04:07;;;;;;;0.63;0.43;;;13.00;66.30;;;;;;4993596;28;20030;-22
2022/01/09 10:06:46;;;;;;;0.52;0.40;;;13.10;66.40;;;;;;4995201;28;20065;-25
2022/01/09 10:09:14;;;;;;;0.73;0.30;;;13.10;66.30;;;;;;4994282;28;20125;-24
2022/01/09 10:11:49;;;;;;;0.68;0.40;;;13.10;66.20;;;;;;4993144;28;20034;-21
2022/01/09 10:14:20;;;;;;;0.75;0.47;;;13.10;66.20;;;;;;5003083;28;20503;-24
2022/01/09 10:17:16;;;;;;;0.60;0.40;;;13.00;66.20;;;;;;4997513;28;20503;-26
2022/01/09 10:19:56;;;;;;;0.90;0.40;;;13.10;66.30;;;;;;4995338;28;20383;-23
2022/01/09 10:22:22;;;;;;;0.30;0.30;;;13.10;66.40;;;;;;4995223;28;20038;-22
2022/01/09 10:24:48;;;;;;;0.50;0.40;;;13.10;66.30;;;;;;4992175;28;20667;-23
2022/01/09 10:27:34;;;;;;;0.35;0.30;;;13.10;66.20;;;;;;5009968;28;20077;-20
2022/01/09 10:30:00;;;;;;;0.50;0.38;;;13.10;66.90;;;;;;4993437;28;20113;-24
2022/01/09 10:32:29;;;;;;;0.73;0.50;;;13.10;66.10;;;;;;4994228;28;20667;-22
2022/01/09 10:35:07;;;;;;;1.23;0.50;;;13.10;66.10;;;;;;4992727;28;20048;-23
2022/01/09 10:37:35;;;;;;;0.40;0.40;;;13.10;66.10;;;;;;4995010;28;20026;-22
2022/01/09 10:40:01;;;;;;;0.60;0.47;;;13.20;66.20;;;;;;4994183;28;20026;-23
2022/01/09 10:42:27;;;;;;;0.52;0.40;;;13.20;66.10;;;;;;4994721;28;20077;-22
2022/01/09 10:44:53;;;;;;;0.68;0.40;;;13.10;66.00;;;;;;4998897;28;20031;-20
2022/01/09 10:47:18;;;;;;;0.93;0.65;;;13.20;66.00;;;;;;4999364;28;20558;-23
2022/01/09 10:49:49;;;;;;;0.50;0.50;;;13.20;65.80;;;;;;4993311;28;20018;-21
2022/01/09 10:52:29;;;;;;;0.50;0.40;;;13.10;65.90;;;;;;4996451;28;20058;-23
2022/01/09 10:54:56;;;;;;;0.52;0.40;;;13.10;66.00;;;;;;5011724;28;20068;-23
2022/01/09 10:57:24;;;;;;;0.40;0.40;;;13.10;66.00;;;;;;4997610;28;20049;-23
2022/01/09 10:59:49;;;;;;;0.50;0.35;;;13.10;66.10;;;;;;4998284;28;20029;-22
2022/01/09 11:02:15;;;;;;;0.98;0.45;;;13.10;66.10;;;;;;4998685;28;20026;-24
2022/01/09 11:04:45;;;;;;;0.60;0.40;;;13.10;66.20;;;;;;4984847;28;20031;-23
2022/01/09 11:07:11;;;;;;;0.30;0.20;;;13.10;66.20;;;;;;4986766;28;20014;-21
2022/01/09 11:09:38;;;;;;;0.68;0.50;;;13.10;66.20;;;;;;4996473;28;20050;-22
2022/01/09 11:12:08;;;;;;;0.90;0.40;;;13.10;66.20;;;;;;4997932;28;20049;-23
2022/01/09 11:14:39;;;;;;;0.60;0.45;;;13.10;66.30;;;;;;5013145;28;20509;-20
2022/01/09 11:17:05;;;;;;;0.93;0.50;;;13.10;66.30;;;;;;4997250;28;20076;-23
2022/01/09 11:19:31;;;;;;;0.52;0.40;;;13.10;66.40;;;;;;4997038;28;20460;-21
2022/01/09 11:22:05;;;;;;;0.77;0.40;;;13.10;66.30;;;;;;4998332;28;20105;-21
2022/01/09 11:24:46;;;;;;;0.65;0.40;;;13.10;66.30;;;;;;5001216;28;20057;-22
2022/01/09 11:27:15;;;;;;;0.43;0.40;;;13.10;66.30;;;;;;4998099;28;20045;-24
2022/01/09 11:29:46;;;;;;;0.90;0.32;;;13.10;66.20;;;;;;4998491;28;20502;-24
2022/01/09 11:32:35;;;;;;;0.65;0.60;;;13.10;66.30;;;;;;4998523;28;20027;-22
2022/01/09 11:35:19;;;;;;;0.68;0.63;;;13.10;66.20;;;;;;4991451;28;20039;-26
2022/01/09 11:38:06;;;;;;;0.40;0.40;;;13.20;66.40;;;;;;5007707;28;20125;-24
2022/01/09 11:40:32;;;;;;;0.70;0.50;;;13.10;66.10;;;;;;4978329;28;20113;-22
2022/01/09 11:43:14;;;;;;;0.50;0.50;;;13.10;66.10;;;;;;4984317;28;20065;-24
2022/01/09 11:45:55;;;;;;;0.82;0.47;;;13.10;66.90;;;;;;5017502;28;20064;-23
2022/01/09 11:48:44;;;;;;;0.77;0.45;;;13.10;66.20;;;;;;5016371;28;20041;-23
2022/01/09 11:51:11;;;;;;;0.52;0.30;;;13.10;66.30;;;;;;5017008;28;20046;-20
2022/01/09 11:54:08;;;;;;;0.52;0.40;;;13.10;66.40;;;;;;5015995;28;20030;-22
2022/01/09 11:56:53;;;;;;;0.50;0.40;;;13.10;66.40;;;;;;5016134;28;20037;-23
2022/01/09 11:59:21;;;;;;;0.70;0.43;;;13.10;66.40;;;;;;5013844;28;20038;-22
2022/01/09 12:01:48;;;;;;;0.65;0.40;;;13.10;66.40;;;;;;5016595;28;20053;-23
2022/01/09 12:04:34;;;;;;;0.80;0.43;;;13.10;66.50;;;;;;5016814;28;20034;-20
2022/01/09 12:07:36;;;;;;;0.50;0.43;;;13.10;66.40;;;;;;5016593;28;20026;-20
2022/01/09 12:10:23;;;;;;;0.70;0.43;;;13.10;66.30;;;;;;4997744;28;20132;-21
2022/01/09 12:12:49;;;;;;;0.50;0.50;;;13.10;66.40;;;;;;5010484;28;20108;-22
2022/01/09 12:15:39;;;;;;;0.73;0.73;;;13.10;66.40;;;;;;5032201;28;20100;-23
2022/01/09 12:18:07;;;;;;;0.50;0.50;;;13.10;66.40;;;;;;5017379;28;20497;-22
2022/01/09 12:20:38;;;;;;;0.63;0.63;;;13.10;66.50;;;;;;5016673;28;20061;-23
2022/01/09 12:23:05;;;;;;;0.63;0.63;;;13.10;66.50;;;;;;5010914;28;20117;-24
2022/01/09 12:25:36;;;;;;;0.50;0.50;;;13.10;66.50;;;;;;5017107;28;20057;-22
2022/01/09 12:28:13;;;;;;;0.60;0.50;;;13.10;66.50;;;;;;5017038;28;20538;-24
2022/01/09 12:30:40;;;;;;;0.70;0.60;;;13.10;66.50;;;;;;5014286;28;20095;-21
2022/01/09 12:33:06;;;;;;;0.50;0.50;;;13.10;66.40;;;;;;5015082;28;20247;-22
2022/01/09 12:35:32;;;;;;;0.38;0.30;;;13.10;66.40;;;;;;5016533;28;20191;-20
2022/01/09 12:38:00;;;;;;;0.52;0.40;;;13.10;66.40;;;;;;5016640;28;20101;-22
2022/01/09 12:40:26;;;;;;;0.73;0.63;;;13.10;66.40;;;;;;5016459;28;20034;-21
2022/01/09 12:42:53;;;;;;;0.98;0.60;;;13.10;66.50;;;;;;5016294;28;20368;-20
2022/01/09 12:45:19;;;;;;;0.50;0.30;;;13.10;66.40;;;;;;5016847;28;20026;-21
2022/01/09 12:47:44;;;;;;;0.40;0.30;;;13.10;66.50;;;;;;5016025;28;20141;-20
2022/01/09 12:50:10;;;;;;;0.45;0.45;;;13.10;66.50;;;;;;5016392;28;20483;-21
2022/01/09 12:52:36;;;;;;;0.40;0.30;;;13.10;66.80;;;;;;5016176;28;20117;-20
2022/01/09 12:55:12;;;;;;;0.52;0.45;;;13.10;66.60;;;;;;5015855;28;20568;-20
2022/01/09 12:57:54;;;;;;;0.55;0.50;;;13.10;66.60;;;;;;5016296;28;20026;-22